Time,TemperatureF,DewpointF,PressureIn,WindDirection,WindDirectionDegrees,WindSpeedMPH,WindSpeedGustMPH,Humidity,HourlyPrecipIn,Conditions,Clouds,dailyrainin,SoftwareType,DateUTC
2013-10-18 00:38:00,40.9,38.2,29.60,SSW,203,0.0,0.0,90,0.00,,,0.00,WUHU21623XXSP,2013-10-18 04:38:00,
2013-10-18 01:38:00,40.0,37.3,29.60,South,180,0.0,0.0,90,0.00,,,0.00,WUHU21623XXSP,2013-10-18 05:38:00,
2013-10-18 02:38:00,39.1,36.4,29.61,SSW,203,0.0,0.0,90,0.00,,,0.00,WUHU21623XXSP,2013-10-18 06:38:00,
2013-10-18 03:38:00,38.6,35.9,29.61,SSW,203,0.0,0.0,90,0.00,,,0.00,WUHU21623XXSP,2013-10-18 07:38:00,
2013-10-18 04:38:00,40.2,38.0,29.62,SSW,203,0.0,0.0,92,0.00,,,0.00,WUHU21623XXSP,2013-10-18 08:38:00,
2013-10-18 05:38:00,39.1,36.6,29.62,SSW,203,0.0,0.0,91,0.00,,,0.00,WUHU21623XXSP,2013-10-18 09:38:00,
2013-10-18 06:38:00,38.2,35.8,29.63,SSW,203,0.0,0.0,91,0.00,,,0.00,WUHU21623XXSP,2013-10-18 10:38:00,
2013-10-18 07:38:00,38.2,36.0,29.64,South,180,0.0,0.0,92,0.00,,,0.00,WUHU21623XXSP,2013-10-18 11:38:00,
2013-10-18 08:38:00,38.8,36.6,29.65,SSW,203,0.0,0.0,92,0.00,,,0.00,WUHU21623XXSP,2013-10-18 12:38:00,
2013-10-18 09:38:00,41.8,39.9,29.66,South,180,2.0,2.0,93,0.00,,,0.00,WUHU21623XXSP,2013-10-18 13:38:00,
2013-10-18 10:38:00,45.6,43.6,29.66,SSW,203,0.0,0.0,93,0.00,,,0.00,WUHU21623XXSP,2013-10-18 14:38:00,
2013-10-18 11:38:00,49.9,47.0,29.65,South,180,2.7,2.7,90,0.00,,,0.00,WUHU21623XXSP,2013-10-18 15:38:00,
2013-10-18 11:54:00,51.0,47.5,29.65,SSW,202,0.0,0.0,88,0.00,,,0.00,WUHU21623XXSP,2013-10-18 15:54:00,
2013-10-18 11:59:00,51.4,47.3,29.65,SSW,202,0.0,0.0,86,0.00,,,0.00,WUHU21623XXSP,2013-10-18 15:59:00,
2013-10-18 12:04:00,51.7,47.6,29.65,South,180,0.0,0.0,86,0.00,,,0.00,WUHU21623XXSP,2013-10-18 16:04:00,
2013-10-18 12:09:00,52.3,47.9,29.65,South,180,0.0,0.0,85,0.00,,,0.00,WUHU21623XXSP,2013-10-18 16:09:00,
2013-10-18 12:14:00,52.5,47.8,29.64,SSW,202,0.0,0.0,84,0.00,,,0.00,WUHU21623XXSP,2013-10-18 16:14:00,
2013-10-18 12:20:00,53.0,47.7,29.64,South,180,0.0,0.0,82,0.00,,,0.00,WUHU21623XXSP,2013-10-18 16:20:00,
2013-10-18 12:25:00,53.2,47.6,29.64,South,180,1.1,1.1,81,0.00,,,0.00,WUHU21623XXSP,2013-10-18 16:25:00,
2013-10-18 12:33:00,53.7,47.7,29.64,SSW,202,0.0,1.1,80,0.00,,,0.00,WUHU21623XXSP,2013-10-18 16:33:00,
2013-10-18 12:38:00,54.1,47.8,29.64,SSW,202,3.6,3.6,79,0.00,,,0.00,WUHU21623XXSP,2013-10-18 16:38:00,
2013-10-18 12:43:00,54.1,47.8,29.64,SSW,202,3.6,3.6,79,0.00,,,0.00,WUHU21623XXSP,2013-10-18 16:43:00,
2013-10-18 12:52:00,54.6,47.9,29.64,West,270,0.0,0.0,78,0.00,,,0.00,WUHU21623XXSP,2013-10-18 16:52:00,
2013-10-18 12:57:00,55.0,48.0,29.64,WNW,292,6.9,6.9,77,0.00,,,0.00,WUHU21623XXSP,2013-10-18 16:57:00,
2013-10-18 13:02:00,55.0,47.7,29.63,West,270,0.0,6.9,76,0.00,,,0.00,WUHU21623XXSP,2013-10-18 17:02:00,
2013-10-18 13:07:00,55.0,47.7,29.63,NNW,337,0.0,0.0,76,0.00,,,0.00,WUHU21623XXSP,2013-10-18 17:07:00,
2013-10-18 13:14:00,55.5,47.4,29.63,SSW,202,0.0,0.0,74,0.00,,,0.00,WUHU21623XXSP,2013-10-18 17:14:00,
2013-10-18 13:24:00,55.9,47.1,29.63,SSW,202,0.0,0.0,72,0.00,,,0.00,WUHU21623XXSP,2013-10-18 17:24:00,
2013-10-18 13:29:00,56.1,47.3,29.63,SSE,157,1.6,1.6,72,0.00,,,0.00,WUHU21623XXSP,2013-10-18 17:29:00,
2013-10-18 13:37:00,56.2,47.0,29.62,WSW,247,0.0,1.6,71,0.00,,,0.00,WUHU21623XXSP,2013-10-18 17:37:00,
2013-10-18 13:38:00,56.2,47.0,29.62,WSW,247,0.0,1.6,71,0.00,,,0.00,WUHU21623XXSP,2013-10-18 17:38:00,
2013-10-18 13:43:00,56.4,46.9,29.61,SSW,202,2.0,2.0,70,0.00,,,0.00,WUHU21623XXSP,2013-10-18 17:43:00,
2013-10-18 13:48:00,56.8,46.9,29.61,SSW,202,7.6,7.6,69,0.00,,,0.00,WUHU21623XXSP,2013-10-18 17:48:00,
2013-10-18 13:53:00,56.8,46.5,29.61,NW,315,0.0,7.6,68,0.00,,,0.00,WUHU21623XXSP,2013-10-18 17:53:00,
2013-10-18 13:58:00,57.0,46.7,29.61,South,180,0.0,0.0,68,0.00,,,0.00,WUHU21623XXSP,2013-10-18 17:58:00,
2013-10-18 14:03:00,57.1,46.4,29.61,WSW,247,0.0,0.0,67,0.00,,,0.00,WUHU21623XXSP,2013-10-18 18:03:00,
2013-10-18 14:08:00,57.1,46.0,29.61,West,270,0.0,0.0,66,0.00,,,0.00,WUHU21623XXSP,2013-10-18 18:08:00,
2013-10-18 14:13:00,57.1,46.0,29.61,SW,225,0.0,0.0,66,0.00,,,0.00,WUHU21623XXSP,2013-10-18 18:13:00,
2013-10-18 14:20:00,57.3,45.8,29.61,South,180,0.0,8.5,65,0.00,,,0.00,WUHU21623XXSP,2013-10-18 18:20:00,
2013-10-18 14:25:00,57.3,45.4,29.61,SSW,202,6.9,6.9,64,0.00,,,0.00,WUHU21623XXSP,2013-10-18 18:25:00,
2013-10-18 14:30:00,57.3,45.4,29.61,WNW,292,4.7,6.9,64,0.00,,,0.00,WUHU21623XXSP,2013-10-18 18:30:00,
2013-10-18 14:35:00,57.9,45.9,29.60,South,180,3.1,4.7,64,0.00,,,0.00,WUHU21623XXSP,2013-10-18 18:35:00,
2013-10-18 14:40:00,58.0,45.6,29.61,West,270,0.0,3.1,63,0.00,,,0.00,WUHU21623XXSP,2013-10-18 18:40:00,
2013-10-18 14:45:00,58.0,45.2,29.61,SSW,202,14.3,14.3,62,0.00,,,0.00,WUHU21623XXSP,2013-10-18 18:45:00,
2013-10-18 14:50:00,58.2,44.9,29.60,SSW,202,0.0,14.3,61,0.00,,,0.00,WUHU21623XXSP,2013-10-18 18:50:00,
2013-10-18 14:55:00,58.2,44.5,29.60,West,270,4.7,5.1,60,0.00,,,0.00,WUHU21623XXSP,2013-10-18 18:55:00,
2013-10-18 15:01:00,58.6,44.9,29.60,SW,225,3.6,4.7,60,0.00,,,0.00,WUHU21623XXSP,2013-10-18 19:01:00,
2013-10-18 15:09:00,58.6,44.4,29.60,SSW,202,0.0,3.6,59,0.00,,,0.00,WUHU21623XXSP,2013-10-18 19:09:00,
2013-10-18 15:14:00,58.8,44.6,29.60,SSW,202,0.0,0.0,59,0.00,,,0.00,WUHU21623XXSP,2013-10-18 19:14:00,
2013-10-18 15:19:00,58.8,43.7,29.60,South,180,9.8,9.8,57,0.00,,,0.00,WUHU21623XXSP,2013-10-18 19:19:00,
2013-10-18 15:24:00,58.6,43.5,29.60,South,180,0.0,9.8,57,0.00,,,0.00,WUHU21623XXSP,2013-10-18 19:24:00,
2013-10-18 15:29:00,58.6,43.5,29.60,South,180,6.9,6.9,57,0.00,,,0.00,WUHU21623XXSP,2013-10-18 19:29:00,
2013-10-18 15:34:00,58.6,43.0,29.59,SSW,202,7.6,7.6,56,0.00,,,0.00,WUHU21623XXSP,2013-10-18 19:34:00,
2013-10-18 15:39:00,58.6,42.6,29.60,WNW,292,0.0,7.6,55,0.00,,,0.00,WUHU21623XXSP,2013-10-18 19:39:00,
2013-10-18 15:44:00,58.8,42.7,29.59,South,180,9.6,9.6,55,0.00,,,0.00,WUHU21623XXSP,2013-10-18 19:44:00,
2013-10-18 15:49:00,58.4,42.8,29.59,South,180,9.6,9.6,56,0.00,,,0.00,WUHU21623XXSP,2013-10-18 19:49:00,
2013-10-18 15:59:00,58.6,43.5,29.59,WSW,247,0.0,0.0,57,0.00,,,0.00,WUHU21623XXSP,2013-10-18 19:59:00,
2013-10-18 16:04:00,58.6,43.0,29.58,WSW,247,0.0,0.0,56,0.00,,,0.00,WUHU21623XXSP,2013-10-18 20:04:00,
2013-10-18 16:09:00,58.9,43.8,29.58,SSW,202,7.2,7.2,57,0.00,,,0.00,WUHU21623XXSP,2013-10-18 20:09:00,
2013-10-18 16:14:00,59.1,43.5,29.59,SSW,202,7.8,7.8,56,0.00,,,0.00,WUHU21623XXSP,2013-10-18 20:14:00,
2013-10-18 16:20:00,59.1,43.5,29.58,WSW,247,0.0,7.8,56,0.00,,,0.00,WUHU21623XXSP,2013-10-18 20:20:00,
2013-10-18 16:25:00,58.8,43.2,29.59,SSW,202,0.0,0.0,56,0.00,,,0.00,WUHU21623XXSP,2013-10-18 20:25:00,
2013-10-18 16:30:00,58.4,43.3,29.59,SSW,202,11.6,11.6,57,0.00,,,0.00,WUHU21623XXSP,2013-10-18 20:30:00,
2013-10-18 16:35:00,58.2,43.6,29.59,SSW,202,6.0,11.6,58,0.00,,,0.00,WUHU21623XXSP,2013-10-18 20:35:00,
2013-10-18 16:40:00,58.0,43.4,29.59,SSW,202,4.3,6.0,58,0.00,,,0.00,WUHU21623XXSP,2013-10-18 20:40:00,
2013-10-18 16:46:00,57.7,42.7,29.59,South,180,0.0,4.3,57,0.00,,,0.00,WUHU21623XXSP,2013-10-18 20:46:00,
2013-10-18 16:51:00,57.3,42.3,29.59,SW,225,0.0,0.0,57,0.00,,,0.00,WUHU21623XXSP,2013-10-18 20:51:00,
2013-10-18 16:56:00,57.3,42.7,29.59,South,180,6.5,6.5,58,0.00,,,0.00,WUHU21623XXSP,2013-10-18 20:56:00,
2013-10-18 17:01:00,57.1,42.6,29.59,SSW,202,0.0,6.5,58,0.00,,,0.00,WUHU21623XXSP,2013-10-18 21:01:00,
2013-10-18 17:09:00,56.6,43.0,29.59,West,270,5.8,5.8,60,0.00,,,0.00,WUHU21623XXSP,2013-10-18 21:09:00,
2013-10-18 17:14:00,56.4,43.2,29.59,SW,225,6.3,6.3,61,0.00,,,0.00,WUHU21623XXSP,2013-10-18 21:14:00,
2013-10-18 17:19:00,56.2,43.5,29.59,South,180,7.8,7.8,62,0.00,,,0.00,WUHU21623XXSP,2013-10-18 21:19:00,
2013-10-18 17:24:00,56.2,43.5,29.59,SW,225,0.0,7.8,62,0.00,,,0.00,WUHU21623XXSP,2013-10-18 21:24:00,
2013-10-18 17:29:00,56.2,43.9,29.60,SSE,157,0.0,0.0,63,0.00,,,0.00,WUHU21623XXSP,2013-10-18 21:29:00,
2013-10-18 17:34:00,56.4,44.1,29.60,West,270,0.0,0.0,63,0.00,,,0.00,WUHU21623XXSP,2013-10-18 21:34:00,
2013-10-18 17:39:00,56.2,43.9,29.60,South,180,10.5,10.5,63,0.00,,,0.00,WUHU21623XXSP,2013-10-18 21:39:00,
2013-10-18 17:46:00,55.9,43.2,29.60,SSW,202,4.7,10.5,62,0.00,,,0.00,WUHU21623XXSP,2013-10-18 21:46:00,
2013-10-18 17:51:00,55.9,43.2,29.60,South,180,0.0,4.7,62,0.00,,,0.00,WUHU21623XXSP,2013-10-18 21:51:00,
2013-10-18 17:56:00,55.9,43.2,29.61,SSW,202,6.0,6.0,62,0.00,,,0.00,WUHU21623XXSP,2013-10-18 21:56:00,
2013-10-18 18:01:00,55.7,43.0,29.61,SW,225,2.5,6.0,62,0.00,,,0.00,WUHU21623XXSP,2013-10-18 22:01:00,
2013-10-18 18:06:00,55.5,42.8,29.61,NW,315,9.4,9.4,62,0.00,,,0.00,WUHU21623XXSP,2013-10-18 22:06:00,
2013-10-18 18:11:00,55.3,42.6,29.62,West,270,6.0,9.4,62,0.00,,,0.00,WUHU21623XXSP,2013-10-18 22:11:00,
2013-10-18 18:16:00,54.8,42.6,29.62,SSW,202,7.4,10.7,63,0.00,,,0.00,WUHU21623XXSP,2013-10-18 22:16:00,
2013-10-18 18:24:00,54.1,41.9,29.62,West,270,0.0,7.4,63,0.00,,,0.00,WUHU21623XXSP,2013-10-18 22:24:00,
2013-10-18 18:29:00,53.9,42.1,29.62,SSW,202,0.0,0.0,64,0.00,,,0.00,WUHU21623XXSP,2013-10-18 22:29:00,
2013-10-18 18:39:00,52.8,41.5,29.63,South,180,7.2,7.2,65,0.00,,,0.00,WUHU21623XXSP,2013-10-18 22:39:00,
2013-10-18 18:46:00,52.6,41.3,29.62,WSW,247,0.0,7.2,65,0.00,,,0.00,WUHU21623XXSP,2013-10-18 22:46:00,
2013-10-18 18:56:00,51.9,41.4,29.63,West,270,3.6,3.6,67,0.00,,,0.00,WUHU21623XXSP,2013-10-18 22:56:00,
2013-10-18 19:01:00,51.7,41.2,29.63,SSW,202,0.0,3.6,67,0.00,,,0.00,WUHU21623XXSP,2013-10-18 23:01:00,
2013-10-18 19:06:00,51.7,41.6,29.63,SSE,157,4.9,4.9,68,0.00,,,0.00,WUHU21623XXSP,2013-10-18 23:06:00,
2013-10-18 19:11:00,51.7,41.6,29.63,WNW,292,11.6,11.6,68,0.00,,,0.00,WUHU21623XXSP,2013-10-18 23:11:00,
2013-10-18 19:16:00,51.7,42.0,29.63,WNW,292,1.8,11.6,69,0.00,,,0.00,WUHU21623XXSP,2013-10-18 23:16:00,
2013-10-18 19:21:00,51.4,41.7,29.63,SW,225,0.0,1.8,69,0.00,,,0.00,WUHU21623XXSP,2013-10-18 23:21:00,
2013-10-18 19:26:00,51.4,42.0,29.63,SSW,202,7.2,7.2,70,0.00,,,0.00,WUHU21623XXSP,2013-10-18 23:26:00,
2013-10-18 19:33:00,51.0,41.7,29.63,West,270,4.3,7.2,70,0.00,,,0.00,WUHU21623XXSP,2013-10-18 23:33:00,
2013-10-18 19:38:00,50.8,41.5,29.63,SSW,202,4.7,4.7,70,0.00,,,0.00,WUHU21623XXSP,2013-10-18 23:38:00,
2013-10-18 19:43:00,50.5,41.5,29.64,WSW,247,1.6,4.7,71,0.00,,,0.00,WUHU21623XXSP,2013-10-18 23:43:00,
2013-10-18 19:48:00,50.1,41.2,29.63,West,270,2.7,2.7,71,0.00,,,0.00,WUHU21623XXSP,2013-10-18 23:48:00,
2013-10-18 19:53:00,50.1,41.5,29.64,WSW,247,0.0,2.7,72,0.00,,,0.00,WUHU21623XXSP,2013-10-18 23:53:00,
2013-10-18 19:58:00,49.9,41.3,29.65,South,180,2.9,2.9,72,0.00,,,0.00,WUHU21623XXSP,2013-10-18 23:58:00,
2013-10-18 20:03:00,49.4,41.2,29.65,SW,225,5.1,5.1,73,0.00,,,0.00,WUHU21623XXSP,2013-10-19 00:03:00,
2013-10-18 20:08:00,49.2,41.0,29.65,SSW,202,4.3,5.1,73,0.00,,,0.00,WUHU21623XXSP,2013-10-19 00:08:00,
2013-10-18 20:16:00,48.9,41.1,29.65,SSW,202,2.5,4.3,74,0.00,,,0.00,WUHU21623XXSP,2013-10-19 00:16:00,
2013-10-18 20:21:00,48.7,40.9,29.65,WSW,247,4.5,4.5,74,0.00,,,0.00,WUHU21623XXSP,2013-10-19 00:21:00,
2013-10-18 20:26:00,48.7,41.2,29.65,SSW,202,0.0,4.5,75,0.00,,,0.00,WUHU21623XXSP,2013-10-19 00:26:00,
2013-10-18 20:31:00,48.3,40.8,29.65,SSW,202,0.0,2.5,75,0.00,,,0.00,WUHU21623XXSP,2013-10-19 00:31:00,
2013-10-18 20:36:00,48.3,40.8,29.65,SSW,202,0.0,2.5,75,0.00,,,0.00,WUHU21623XXSP,2013-10-19 00:36:00,
2013-10-18 20:41:00,48.0,40.9,29.65,South,180,8.3,8.3,76,0.00,,,0.00,WUHU21623XXSP,2013-10-19 00:41:00,
2013-10-18 20:46:00,47.8,40.7,29.65,SSW,202,0.0,8.3,76,0.00,,,0.00,WUHU21623XXSP,2013-10-19 00:46:00,
2013-10-18 20:51:00,47.6,40.5,29.65,South,180,0.0,0.0,76,0.00,,,0.00,WUHU21623XXSP,2013-10-19 00:51:00,
2013-10-18 20:56:00,47.4,40.3,29.65,South,180,0.0,0.0,76,0.00,,,0.00,WUHU21623XXSP,2013-10-19 00:56:00,
2013-10-18 21:01:00,47.2,40.4,29.65,SSW,202,6.5,6.5,77,0.00,,,0.00,WUHU21623XXSP,2013-10-19 01:01:00,
2013-10-18 21:06:00,47.1,40.3,29.65,SW,225,3.6,6.5,77,0.00,,,0.00,WUHU21623XXSP,2013-10-19 01:06:00,
2013-10-18 21:11:00,47.1,40.3,29.66,SSE,157,0.0,3.6,77,0.00,,,0.00,WUHU21623XXSP,2013-10-19 01:11:00,
2013-10-18 21:16:00,46.9,40.4,29.65,NNW,337,0.0,0.0,78,0.00,,,0.00,WUHU21623XXSP,2013-10-19 01:16:00,
2013-10-18 21:21:00,46.5,40.1,29.66,SSW,202,0.0,0.0,78,0.00,,,0.00,WUHU21623XXSP,2013-10-19 01:21:00,
2013-10-18 21:26:00,46.5,40.1,29.66,SSW,202,0.0,0.0,78,0.00,,,0.00,WUHU21623XXSP,2013-10-19 01:26:00,
2013-10-18 21:31:00,46.2,40.1,29.66,South,180,0.0,0.0,79,0.00,,,0.00,WUHU21623XXSP,2013-10-19 01:31:00,
2013-10-18 21:36:00,46.0,39.9,29.66,South,180,0.0,0.0,79,0.00,,,0.00,WUHU21623XXSP,2013-10-19 01:36:00,
2013-10-18 21:41:00,46.0,39.9,29.66,South,180,0.0,0.0,79,0.00,,,0.00,WUHU21623XXSP,2013-10-19 01:41:00,
2013-10-18 21:46:00,45.6,39.8,29.67,SW,225,0.0,0.0,80,0.00,,,0.00,WUHU21623XXSP,2013-10-19 01:46:00,
2013-10-18 21:51:00,45.6,39.8,29.66,SW,225,0.0,0.0,80,0.00,,,0.00,WUHU21623XXSP,2013-10-19 01:51:00,
2013-10-18 21:56:00,45.4,39.6,29.67,SSW,202,0.0,0.0,80,0.00,,,0.00,WUHU21623XXSP,2013-10-19 01:56:00,
2013-10-18 22:05:00,45.3,39.8,29.67,South,180,0.0,0.0,81,0.00,,,0.00,WUHU21623XXSP,2013-10-19 02:05:00,
2013-10-18 22:11:00,45.1,39.6,29.66,SSW,202,7.4,7.4,81,0.00,,,0.00,WUHU21623XXSP,2013-10-19 02:11:00,
2013-10-18 22:18:00,45.1,39.9,29.67,South,180,0.0,7.4,82,0.00,,,0.00,WUHU21623XXSP,2013-10-19 02:18:00,
2013-10-18 22:28:00,44.7,39.2,29.66,SSW,202,1.6,1.6,81,0.00,,,0.00,WUHU21623XXSP,2013-10-19 02:28:00,
2013-10-18 22:33:00,44.7,39.2,29.66,SSW,202,0.0,1.6,81,0.00,,,0.00,WUHU21623XXSP,2013-10-19 02:33:00,
2013-10-18 22:38:00,44.7,39.6,29.66,SSW,202,0.0,0.0,82,0.00,,,0.00,WUHU21623XXSP,2013-10-19 02:38:00,
2013-10-18 22:43:00,44.5,39.4,29.66,SSW,202,0.0,0.0,82,0.00,,,0.00,WUHU21623XXSP,2013-10-19 02:43:00,
2013-10-18 22:52:00,44.2,39.1,29.66,SSW,202,0.0,0.0,82,0.00,,,0.00,WUHU21623XXSP,2013-10-19 02:52:00,
2013-10-18 22:57:00,44.0,38.9,29.66,SSW,202,0.0,0.0,82,0.00,,,0.00,WUHU21623XXSP,2013-10-19 02:57:00,
2013-10-18 23:02:00,44.0,38.9,29.66,SSW,202,0.0,0.0,82,0.00,,,0.00,WUHU21623XXSP,2013-10-19 03:02:00,
2013-10-18 23:07:00,43.6,38.5,29.66,SSW,202,0.0,0.0,82,0.00,,,0.00,WUHU21623XXSP,2013-10-19 03:07:00,
2013-10-18 23:12:00,43.5,38.4,29.66,SSW,202,0.0,0.0,82,0.00,,,0.00,WUHU21623XXSP,2013-10-19 03:12:00,
2013-10-18 23:17:00,43.5,38.4,29.66,SSW,202,0.0,0.0,82,0.00,,,0.00,WUHU21623XXSP,2013-10-19 03:17:00,
2013-10-18 23:24:00,43.5,38.7,29.66,SSW,202,0.0,0.0,83,0.00,,,0.00,WUHU21623XXSP,2013-10-19 03:24:00,
2013-10-18 23:33:00,43.5,38.7,29.66,SSW,202,0.0,0.0,83,0.00,,,0.00,WUHU21623XXSP,2013-10-19 03:33:00,
2013-10-18 23:38:00,43.5,39.0,29.65,SSW,202,0.0,0.0,84,0.00,,,0.00,WUHU21623XXSP,2013-10-19 03:38:00,
2013-10-18 23:43:00,43.5,39.0,29.65,SSW,202,0.0,0.0,84,0.00,,,0.00,WUHU21623XXSP,2013-10-19 03:43:00,
2013-10-18 23:48:00,43.5,39.0,29.65,SW,225,0.0,0.0,84,0.00,,,0.00,WUHU21623XXSP,2013-10-19 03:48:00,
2013-10-18 23:52:00,43.6,39.4,29.65,South,180,0.0,0.0,85,0.00,,,0.00,WUHU21623XXSP,2013-10-19 03:52:00,
2013-10-18 23:53:00,43.6,39.4,29.65,South,180,0.0,0.0,85,0.00,,,0.00,WUHU21623XXSP,2013-10-19 03:53:00,
2013-10-18 23:58:00,43.6,39.4,29.65,South,180,0.0,0.0,85,0.00,,,0.00,WUHU21623XXSP,2013-10-19 03:58:00,